メインページ
METAR-TAF:

METAR-TAF

空港 :

香港国際空港

香港, 中華人民共和国

緯度: 22-19N, 経度: 113-55E, 海抜: 9m

現時点の気象観測

当レポートは39分前の02:00(UTC)に作成
東/北東の風 6kt
気温 18°C
湿度 64%
気圧 1026 hPa
視程10km以上
高度2800ftの雲はほとんどない

METAR: VHHH 150200Z 06006KT 9999 FEW028 18/11 Q1026 NOSIG

時間: 10:39 (02:39 UTC)

予報

当レポートは3時間39分前の23:00(UTC)に作成
予報は15日の 00時(UTC)から 16日の 06時(UTC)まで有効
北東の風 10kt
視程10km以上
高度3000ftの雲はほとんどない
15日の 03時(UTC)から 15日の 10時(UTC)まで一時的に
北/北西の風 10kt
15日の 10時(UTC)から 15日の 18時(UTC)まで一時的に
変向風 5kt
16日の 03時(UTC)から 16日の 06時(UTC)まで一時的に
北/北西の風 10kt

TAF: VHHH 142300Z 1500/1606 05010KT 9999 FEW030 TX18/1506Z TX20/1606Z TN16/1500Z TEMPO 1503/1510 33010KT TEMPO 1510/1518 VRB05KT TEMPO 1603/1606 33010KT

4,000以上の空港の気象観測と天気予報(METAR報とTAF報)

利用可能な観測所は地図上に黄色い丸と赤い丸で示す。

丸の上にカーソルを重ねると観測所名を参照できる。

次にクリックすると気象観測と天気予報を参照できる。

マップの切り替え:黒色「×」印の緑ボタンをクリックして拡大、「-」印の緑ボタンをクリックして縮小、緑色の三角印をクリックして隣りの地図に切り替え


METAR-TAF: